Time;durP1;ratioP1;P1;durP2;ratioP2;P2;SDS_P1;SDS_P2;PMS_P1;PMS_P2;Temp;Humidity;BMP_temperature;BMP_pressure;BME280_temperature;BME280_humidity;BME280_pressure;Samples;Min_cycle;Max_cycle;Signal;HPM_P1;HPM_P2
2021/12/14 00:02:13;;;;;;;15.50;12.10;;;7.10;79.40;;;;;;4936305;28;20246;-84
2021/12/14 00:04:39;;;;;;;18.73;13.47;;;7.10;80.60;;;;;;4940209;28;20449;-83
2021/12/14 00:07:09;;;;;;;14.40;12.50;;;7.10;79.50;;;;;;4935950;28;20468;-84
2021/12/14 00:09:36;;;;;;;13.33;11.57;;;7.10;79.40;;;;;;4941514;28;20454;-87
2021/12/14 00:17:47;;;;;;;16.23;11.57;;;7.00;80.70;;;;;;4941659;28;20445;-87
2021/12/14 00:20:28;;;;;;;17.07;12.90;;;7.00;80.60;;;;;;4919560;28;20946;-86
2021/12/14 00:25:27;;;;;;;17.50;12.67;;;7.00;80.10;;;;;;4921723;28;20458;-86
2021/12/14 00:27:54;;;;;;;14.83;12.20;;;7.00;80.90;;;;;;4938420;28;21089;-88
2021/12/14 00:30:20;;;;;;;15.17;11.50;;;7.00;80.70;;;;;;4955531;28;20493;-86
2021/12/14 00:32:46;;;;;;;14.40;11.30;;;7.00;81.50;;;;;;4957581;28;20517;-86
2021/12/14 00:35:13;;;;;;;13.90;10.70;;;7.00;81.30;;;;;;4940668;28;20488;-87
2021/12/14 00:37:45;;;;;;;13.13;10.87;;;7.00;81.30;;;;;;4956407;28;20285;-86
2021/12/14 00:40:26;;;;;;;12.10;10.03;;;7.00;80.90;;;;;;4954544;28;20553;-86
2021/12/14 00:42:54;;;;;;;12.87;10.60;;;7.00;81.30;;;;;;4956489;28;20556;-87
2021/12/14 00:45:21;;;;;;;14.70;9.93;;;7.00;79.90;;;;;;4939737;28;20446;-85
2021/12/14 00:47:48;;;;;;;17.17;12.07;;;7.00;80.40;;;;;;4937887;28;20580;-83
2021/12/14 00:50:16;;;;;;;13.57;11.50;;;7.00;81.10;;;;;;4952333;28;20442;-83
2021/12/14 00:52:43;;;;;;;15.30;10.77;;;7.00;80.50;;;;;;4938401;28;20460;-84
2021/12/14 00:55:11;;;;;;;16.07;11.20;;;6.90;81.10;;;;;;4951715;28;20971;-84
2021/12/14 00:57:37;;;;;;;15.67;12.27;;;7.00;80.90;;;;;;4952742;28;20866;-87
2021/12/14 01:00:10;;;;;;;15.93;10.77;;;7.00;81.20;;;;;;4954682;28;20454;-88
2021/12/14 01:02:36;;;;;;;13.27;9.93;;;7.00;81.70;;;;;;4953701;28;20309;-87
2021/12/14 01:05:25;;;;;;;13.47;10.70;;;7.00;81.10;;;;;;4938668;28;20482;-83
2021/12/14 01:07:51;;;;;;;14.43;10.40;;;7.00;81.30;;;;;;4948619;28;20454;-84
2021/12/14 01:10:32;;;;;;;13.97;10.70;;;7.00;81.00;;;;;;4952644;28;20481;-84
2021/12/14 01:13:04;;;;;;;14.10;10.80;;;7.00;81.90;;;;;;4939616;28;20520;-88
2021/12/14 01:16:12;;;;;;;16.20;10.50;;;6.90;81.60;;;;;;4957733;28;21230;-86
2021/12/14 01:22:18;;;;;;;14.07;10.40;;;6.90;81.00;;;;;;4942152;28;20799;-87
2021/12/14 01:27:11;;;;;;;12.30;9.53;;;6.90;81.50;;;;;;4944754;28;20509;-87
2021/12/14 01:29:39;;;;;;;13.17;9.93;;;6.80;81.30;;;;;;4943709;28;20607;-87
2021/12/14 01:32:06;;;;;;;16.60;11.67;;;6.90;81.90;;;;;;4940972;28;20505;-86
2021/12/14 01:34:32;;;;;;;15.90;10.93;;;6.90;82.30;;;;;;4948485;28;20446;-87
2021/12/14 01:37:04;;;;;;;14.20;10.23;;;6.90;81.80;;;;;;4944395;28;20472;-87
2021/12/14 01:42:14;;;;;;;14.97;11.57;;;6.90;80.60;;;;;;4948308;28;20418;-87
2021/12/14 01:44:48;;;;;;;15.90;10.80;;;6.90;81.90;;;;;;4940963;28;20450;-87
2021/12/14 01:47:21;;;;;;;23.57;12.87;;;6.90;81.60;;;;;;4953683;28;20446;-87
2021/12/14 01:49:48;;;;;;;17.50;10.67;;;6.90;82.10;;;;;;4946320;28;20466;-87
2021/12/14 01:52:19;;;;;;;14.40;10.13;;;6.90;82.00;;;;;;4940680;28;20461;-86
2021/12/14 01:54:50;;;;;;;18.03;11.03;;;6.90;81.90;;;;;;4939883;28;20457;-86
2021/12/14 01:57:18;;;;;;;17.90;11.67;;;6.90;81.90;;;;;;4939649;28;20941;-86
2021/12/14 01:59:46;;;;;;;17.13;10.50;;;6.90;81.90;;;;;;4942196;28;20914;-87
2021/12/14 02:02:31;;;;;;;16.63;11.87;;;6.90;81.20;;;;;;4942097;28;20448;-87
2021/12/14 02:04:59;;;;;;;15.70;11.03;;;6.90;81.90;;;;;;4941526;28;20450;-87
2021/12/14 02:07:27;;;;;;;15.57;10.30;;;6.90;81.50;;;;;;4941136;28;20500;-88
2021/12/14 02:09:57;;;;;;;17.20;10.87;;;6.90;81.10;;;;;;4940200;28;20601;-86
2021/12/14 02:12:26;;;;;;;15.87;9.53;;;6.90;81.20;;;;;;4941582;28;20500;-87
2021/12/14 02:14:53;;;;;;;15.70;9.53;;;6.90;81.30;;;;;;4939653;28;20493;-85
2021/12/14 02:17:22;;;;;;;15.67;10.37;;;6.90;80.60;;;;;;4941398;28;20466;-86
2021/12/14 02:19:48;;;;;;;11.43;8.30;;;6.80;81.00;;;;;;4938830;28;20450;-87
2021/12/14 02:22:14;;;;;;;13.80;9.53;;;6.90;81.20;;;;;;4941357;28;20509;-86
2021/12/14 02:24:49;;;;;;;19.03;11.80;;;6.90;80.50;;;;;;4939824;28;20463;-88
2021/12/14 02:27:14;;;;;;;13.27;10.67;;;6.80;81.60;;;;;;4942890;28;21304;-87
2021/12/14 02:29:44;;;;;;;15.70;9.83;;;6.90;81.30;;;;;;4940291;28;20506;-87
2021/12/14 02:32:17;;;;;;;12.00;9.53;;;6.90;81.30;;;;;;4941407;28;20238;-86
2021/12/14 02:34:49;;;;;;;13.73;10.40;;;6.90;81.10;;;;;;4940932;28;20521;-86
2021/12/14 02:37:19;;;;;;;15.53;11.17;;;6.90;81.20;;;;;;4943017;28;20868;-87
2021/12/14 02:39:48;;;;;;;17.93;10.67;;;6.90;81.80;;;;;;4944881;28;20791;-87
2021/12/14 02:42:26;;;;;;;14.77;9.87;;;6.90;81.70;;;;;;4941229;28;21018;-88
2021/12/14 02:44:54;;;;;;;15.50;9.47;;;6.90;81.30;;;;;;4940903;28;20451;-86
2021/12/14 02:47:21;;;;;;;17.20;10.40;;;6.90;82.10;;;;;;4938778;28;20541;-86
2021/12/14 02:49:49;;;;;;;12.43;9.17;;;6.90;81.00;;;;;;4939973;28;20796;-86
2021/12/14 02:52:29;;;;;;;14.90;9.77;;;6.90;82.10;;;;;;4940680;28;20454;-84
2021/12/14 02:55:06;;;;;;;14.13;9.57;;;6.90;82.00;;;;;;4935703;28;20556;-84
2021/12/14 02:57:36;;;;;;;14.70;10.07;;;6.80;81.20;;;;;;4938892;28;20450;-84
2021/12/14 03:00:10;;;;;;;12.67;9.40;;;6.80;81.20;;;;;;4936332;28;20446;-84
2021/12/14 03:02:36;;;;;;;13.90;9.17;;;6.80;81.10;;;;;;4937605;28;20569;-84
2021/12/14 03:05:15;;;;;;;13.13;9.83;;;6.70;81.10;;;;;;4937754;28;20478;-84
2021/12/14 03:07:46;;;;;;;14.47;9.30;;;6.80;81.20;;;;;;4940450;28;20439;-84
2021/12/14 03:12:49;;;;;;;15.37;9.80;;;6.70;81.60;;;;;;4938248;28;20451;-84
2021/12/14 03:15:41;;;;;;;14.57;9.90;;;6.70;82.10;;;;;;4938740;28;20508;-84
2021/12/14 03:18:10;;;;;;;16.77;10.13;;;6.70;82.50;;;;;;4938267;28;20455;-84
2021/12/14 03:20:54;;;;;;;11.67;9.67;;;6.70;81.70;;;;;;4938021;28;20923;-83
2021/12/14 03:23:33;;;;;;;13.70;9.30;;;6.70;82.10;;;;;;4939168;28;20451;-83
2021/12/14 03:26:02;;;;;;;17.13;10.23;;;6.70;81.70;;;;;;4939068;28;20537;-83
2021/12/14 03:28:30;;;;;;;14.70;8.87;;;6.70;82.20;;;;;;4938407;28;20442;-83
2021/12/14 03:31:15;;;;;;;17.27;10.87;;;6.60;82.10;;;;;;4937908;28;20482;-83
2021/12/14 03:34:05;;;;;;;12.77;9.20;;;6.60;82.20;;;;;;4938459;28;20478;-83
2021/12/14 03:36:35;;;;;;;14.60;9.70;;;6.60;82.20;;;;;;4919157;28;20464;-82
2021/12/14 03:39:26;;;;;;;11.50;7.37;;;6.60;82.10;;;;;;4934197;28;20463;-82
2021/12/14 03:41:56;;;;;;;17.10;9.63;;;6.60;82.80;;;;;;4933851;28;20469;-82
2021/12/14 03:44:32;;;;;;;13.40;8.47;;;6.50;83.10;;;;;;4923072;28;20475;-84
2021/12/14 03:47:11;;;;;;;15.63;9.23;;;6.60;83.30;;;;;;4933657;28;20467;-84
2021/12/14 03:49:44;;;;;;;13.93;8.77;;;6.50;82.40;;;;;;4932566;28;20562;-85
2021/12/14 03:52:12;;;;;;;15.20;10.33;;;6.60;82.80;;;;;;4935624;28;20459;-85
2021/12/14 03:54:39;;;;;;;14.73;10.03;;;6.50;83.70;;;;;;4935532;28;20518;-87
2021/12/14 03:57:06;;;;;;;13.60;8.57;;;6.60;84.10;;;;;;4937251;28;20464;-86
2021/12/14 03:59:33;;;;;;;14.23;9.27;;;6.60;83.20;;;;;;4937097;28;20518;-87
2021/12/14 04:02:01;;;;;;;11.23;8.07;;;6.60;82.90;;;;;;4939018;28;20460;-84
2021/12/14 04:04:41;;;;;;;14.40;8.70;;;6.60;82.20;;;;;;4935292;28;20701;-87
2021/12/14 04:07:10;;;;;;;11.50;8.63;;;6.50;81.10;;;;;;4934340;28;20456;-86
2021/12/14 04:09:37;;;;;;;12.17;8.50;;;6.60;82.10;;;;;;4937328;28;20512;-86
2021/12/14 04:12:07;;;;;;;12.37;8.53;;;6.60;81.70;;;;;;4933955;28;20466;-85
2021/12/14 04:14:41;;;;;;;10.43;6.77;;;6.60;81.40;;;;;;4936300;28;20839;-86
2021/12/14 04:17:10;;;;;;;12.83;8.63;;;6.50;81.20;;;;;;4935098;28;20487;-87
2021/12/14 04:19:39;;;;;;;11.67;7.63;;;6.50;82.20;;;;;;4939324;28;20459;-86
2021/12/14 04:22:12;;;;;;;11.70;7.50;;;6.50;80.60;;;;;;4939061;28;20459;-86
2021/12/14 04:24:40;;;;;;;9.80;6.30;;;6.50;82.10;;;;;;4936322;28;20494;-87
2021/12/14 04:27:10;;;;;;;7.70;5.83;;;6.50;82.30;;;;;;4936402;28;20483;-87
2021/12/14 04:29:36;;;;;;;7.20;5.30;;;6.50;82.10;;;;;;4935519;28;20507;-86
2021/12/14 04:32:03;;;;;;;9.83;6.70;;;6.50;82.20;;;;;;4937049;28;20459;-86
2021/12/14 04:34:31;;;;;;;8.13;6.70;;;6.40;81.80;;;;;;4937252;28;20828;-83
2021/12/14 04:36:58;;;;;;;6.87;5.60;;;6.40;81.60;;;;;;4934839;28;20468;-84
2021/12/14 04:53:10;;;;;;;6.60;5.17;;;6.30;78.90;;;;;;4921583;28;20453;-84
2021/12/14 04:55:46;;;;;;;8.00;6.10;;;6.30;78.70;;;;;;4918478;29;20515;-83
2021/12/14 04:58:13;;;;;;;6.00;5.33;;;6.20;78.40;;;;;;4936222;28;21329;-87
2021/12/14 05:00:44;;;;;;;5.50;5.00;;;6.20;78.60;;;;;;4939440;28;20451;-86
2021/12/14 05:03:35;;;;;;;5.90;5.27;;;6.20;78.70;;;;;;4935953;28;20471;-86
2021/12/14 05:06:14;;;;;;;6.43;5.20;;;6.20;77.60;;;;;;4936149;28;20463;-86
2021/12/14 05:11:12;;;;;;;6.70;5.37;;;6.10;77.40;;;;;;4930248;28;20506;-86
2021/12/14 05:13:53;;;;;;;5.27;4.57;;;6.10;76.60;;;;;;4939449;28;20588;-83
2021/12/14 05:16:22;;;;;;;6.43;5.33;;;6.00;76.30;;;;;;4943137;28;20539;-83
2021/12/14 05:18:50;;;;;;;5.73;5.03;;;6.00;76.70;;;;;;4945648;28;21275;-83
2021/12/14 05:21:39;;;;;;;6.70;6.00;;;5.90;77.80;;;;;;4938384;28;20542;-86
2021/12/14 05:24:09;;;;;;;5.60;4.73;;;5.90;77.40;;;;;;4923661;29;20448;-84
2021/12/14 05:26:35;;;;;;;5.17;4.67;;;6.00;77.50;;;;;;4940558;28;20459;-86
2021/12/14 05:29:05;;;;;;;6.40;4.90;;;6.00;76.10;;;;;;4941552;28;20448;-87
2021/12/14 05:31:31;;;;;;;7.30;5.77;;;5.90;75.90;;;;;;4932594;28;20538;-85
2021/12/14 05:33:57;;;;;;;5.60;4.80;;;6.00;76.00;;;;;;4937344;28;20447;-84
2021/12/14 05:36:24;;;;;;;6.00;5.40;;;5.90;76.20;;;;;;4938547;28;20455;-85
2021/12/14 05:44:20;;;;;;;7.50;5.13;;;6.00;75.50;;;;;;4924125;28;20494;-84
2021/12/14 05:46:50;;;;;;;6.60;5.00;;;5.90;75.40;;;;;;4937949;28;20460;-85
2021/12/14 05:49:22;;;;;;;5.50;4.90;;;5.90;75.70;;;;;;4941766;28;21091;-84
2021/12/14 05:51:49;;;;;;;5.40;4.90;;;5.90;74.50;;;;;;4937683;28;20460;-83
2021/12/14 05:54:24;;;;;;;5.70;5.00;;;5.90;74.10;;;;;;4939123;28;20506;-84
2021/12/14 05:56:54;;;;;;;5.57;4.97;;;5.80;73.40;;;;;;4924425;29;20508;-85
2021/12/14 05:59:23;;;;;;;5.73;4.33;;;5.80;74.80;;;;;;4938420;28;20463;-85
2021/12/14 06:01:50;;;;;;;5.80;5.20;;;5.80;75.50;;;;;;4944742;29;21258;-86
2021/12/14 06:04:16;;;;;;;6.50;4.77;;;5.90;74.60;;;;;;4940802;28;20502;-85
2021/12/14 06:06:45;;;;;;;5.40;4.63;;;5.90;73.80;;;;;;4942379;28;20459;-86
2021/12/14 06:09:31;;;;;;;3.80;3.50;;;5.90;73.10;;;;;;4938684;28;20452;-87
2021/12/14 06:12:14;;;;;;;5.60;4.63;;;5.90;73.70;;;;;;4937926;28;20462;-86
2021/12/14 06:14:51;;;;;;;5.73;5.23;;;5.90;73.40;;;;;;4940228;28;20447;-88
2021/12/14 06:17:22;;;;;;;5.67;5.07;;;5.90;73.50;;;;;;4961670;28;20947;-85
2021/12/14 06:20:02;;;;;;;5.50;4.80;;;5.80;73.40;;;;;;4945305;28;20446;-85
2021/12/14 06:22:31;;;;;;;5.37;4.83;;;5.80;73.50;;;;;;4946352;28;20810;-87
2021/12/14 06:25:03;;;;;;;4.30;3.90;;;5.80;73.80;;;;;;4945256;28;20494;-86
2021/12/14 06:27:31;;;;;;;6.20;5.20;;;5.80;73.20;;;;;;4938485;28;20469;-87
2021/12/14 06:30:04;;;;;;;6.30;5.27;;;5.70;72.60;;;;;;4947770;28;20522;-87
2021/12/14 06:32:46;;;;;;;5.17;4.63;;;5.60;73.20;;;;;;4944008;28;20450;-86
2021/12/14 06:35:20;;;;;;;5.37;4.80;;;5.70;73.60;;;;;;4943387;28;20478;-84
2021/12/14 06:40:52;;;;;;;5.43;4.90;;;5.70;73.30;;;;;;4947411;28;20449;-84
2021/12/14 06:43:30;;;;;;;5.50;4.87;;;5.60;72.50;;;;;;4945578;28;20501;-86
2021/12/14 06:45:59;;;;;;;6.63;4.90;;;5.70;72.30;;;;;;4946526;28;20442;-85
2021/12/14 06:48:49;;;;;;;4.67;4.27;;;5.60;72.00;;;;;;4937129;28;20963;-87
2021/12/14 06:51:31;;;;;;;5.93;4.57;;;5.60;72.90;;;;;;4940763;28;20443;-85
2021/12/14 06:54:10;;;;;;;4.73;4.10;;;5.60;72.50;;;;;;4941108;28;20754;-84
2021/12/14 06:56:36;;;;;;;5.10;4.43;;;5.60;71.70;;;;;;4944550;28;20458;-84
2021/12/14 06:59:06;;;;;;;6.33;5.40;;;5.60;71.90;;;;;;4941560;28;20451;-86
2021/12/14 07:01:47;;;;;;;6.27;5.67;;;5.60;72.30;;;;;;4943046;28;20452;-84
2021/12/14 07:04:21;;;;;;;6.03;5.40;;;5.50;72.10;;;;;;4942541;28;20459;-86
2021/12/14 07:07:00;;;;;;;6.10;5.50;;;5.50;71.80;;;;;;4942258;28;20502;-84
2021/12/14 07:09:39;;;;;;;6.90;6.10;;;5.60;72.30;;;;;;4942550;28;20538;-84
2021/12/14 07:12:19;;;;;;;5.43;4.93;;;5.60;72.80;;;;;;4941214;28;20495;-85
2021/12/14 07:14:53;;;;;;;6.40;5.10;;;5.60;72.50;;;;;;4941906;28;20517;-86
2021/12/14 07:17:28;;;;;;;6.10;5.50;;;5.60;73.20;;;;;;4953348;29;20427;-86
2021/12/14 07:19:57;;;;;;;6.73;5.83;;;5.60;74.50;;;;;;4938612;29;20399;-86
2021/12/14 07:22:23;;;;;;;6.90;6.20;;;5.60;72.50;;;;;;4954269;29;20416;-85
2021/12/14 07:24:59;;;;;;;6.63;5.60;;;5.60;72.30;;;;;;4952483;28;20426;-85
2021/12/14 07:27:30;;;;;;;6.93;6.33;;;5.70;72.20;;;;;;4952060;28;20958;-85
2021/12/14 07:30:21;;;;;;;10.17;8.03;;;5.60;70.60;;;;;;4951386;28;20545;-85
2021/12/14 07:32:52;;;;;;;7.17;6.50;;;5.60;71.20;;;;;;4951548;29;20460;-83
2021/12/14 07:35:34;;;;;;;7.93;6.27;;;5.60;70.90;;;;;;4951565;29;20975;-84
2021/12/14 07:38:21;;;;;;;7.43;6.73;;;5.60;71.20;;;;;;4936989;29;20769;-84
2021/12/14 07:40:53;;;;;;;7.10;6.40;;;5.60;70.20;;;;;;4951588;29;20416;-85
2021/12/14 07:43:24;;;;;;;7.23;6.60;;;5.60;70.10;;;;;;4950654;28;20531;-83
2021/12/14 07:45:51;;;;;;;6.73;5.87;;;5.60;70.50;;;;;;4950417;29;20475;-83
2021/12/14 07:48:36;;;;;;;6.43;5.83;;;5.70;71.30;;;;;;4950209;29;20785;-83
2021/12/14 07:51:02;;;;;;;7.83;6.30;;;5.60;70.90;;;;;;4950434;28;20427;-82
2021/12/14 07:53:37;;;;;;;6.20;5.60;;;5.70;71.00;;;;;;4950410;29;20432;-81
2021/12/14 07:56:04;;;;;;;9.80;7.03;;;5.70;69.70;;;;;;4950805;29;20471;-82
2021/12/14 07:58:37;;;;;;;7.07;6.37;;;5.70;69.50;;;;;;4951036;28;20412;-85
2021/12/14 08:01:07;;;;;;;8.00;7.20;;;5.70;71.30;;;;;;4951363;29;20932;-84
2021/12/14 08:03:34;;;;;;;8.03;7.23;;;5.60;70.60;;;;;;4951484;29;20844;-85
2021/12/14 08:06:04;;;;;;;9.37;7.60;;;5.60;72.20;;;;;;4951179;29;20848;-84
2021/12/14 08:08:40;;;;;;;8.37;7.23;;;5.60;71.80;;;;;;4936624;29;20392;-83
2021/12/14 08:11:29;;;;;;;6.17;5.47;;;5.60;71.60;;;;;;4950911;28;20793;-85
2021/12/14 08:14:13;;;;;;;7.50;6.50;;;5.70;72.00;;;;;;4951352;29;20780;-84
2021/12/14 08:16:43;;;;;;;8.23;7.43;;;5.70;71.90;;;;;;4951582;28;20471;-85
2021/12/14 08:19:35;;;;;;;6.50;5.90;;;5.70;71.50;;;;;;4951456;29;20431;-86
2021/12/14 08:22:13;;;;;;;7.60;6.80;;;5.70;71.50;;;;;;4951431;29;20451;-84
2021/12/14 08:24:39;;;;;;;6.93;5.60;;;5.80;71.50;;;;;;4951794;28;20416;-88
2021/12/14 08:27:07;;;;;;;7.17;6.47;;;5.80;71.00;;;;;;4953186;28;20420;-88
2021/12/14 08:29:36;;;;;;;6.87;6.27;;;6.00;69.60;;;;;;4951355;29;20802;-89
2021/12/14 08:32:12;;;;;;;7.37;6.67;;;5.90;67.20;;;;;;4951253;29;20469;-89
2021/12/14 08:34:44;;;;;;;7.20;6.50;;;5.80;68.40;;;;;;4950974;28;20479;-87
2021/12/14 08:37:17;;;;;;;7.67;6.97;;;5.90;68.80;;;;;;4951215;28;20466;-88
2021/12/14 08:39:42;;;;;;;7.33;6.63;;;5.90;68.10;;;;;;4950238;29;20437;-83
2021/12/14 08:42:21;;;;;;;6.93;6.33;;;5.80;68.30;;;;;;4948673;28;20424;-84
2021/12/14 08:44:54;;;;;;;8.77;6.87;;;5.80;68.40;;;;;;4950108;28;20188;-83
2021/12/14 08:47:32;;;;;;;6.70;6.03;;;5.80;68.40;;;;;;4950222;29;20420;-83
2021/12/14 08:50:00;;;;;;;7.73;6.13;;;5.90;68.50;;;;;;4950009;29;20446;-83
2021/12/14 08:52:27;;;;;;;7.17;6.47;;;5.90;68.10;;;;;;4950000;29;20434;-83
2021/12/14 08:54:54;;;;;;;6.27;5.77;;;6.00;68.80;;;;;;4950289;29;20424;-83
2021/12/14 08:57:25;;;;;;;5.77;5.23;;;6.00;68.60;;;;;;4951264;29;20522;-83
2021/12/14 09:00:00;;;;;;;6.00;5.50;;;6.00;68.60;;;;;;4950805;29;20459;-83
2021/12/14 09:02:29;;;;;;;6.37;5.80;;;6.00;69.80;;;;;;4950662;29;20419;-82
2021/12/14 09:05:02;;;;;;;5.60;5.00;;;6.10;69.40;;;;;;4949985;29;20431;-82
2021/12/14 09:07:30;;;;;;;7.10;5.50;;;6.10;69.40;;;;;;4950439;28;20451;-83
2021/12/14 09:09:58;;;;;;;5.03;4.57;;;6.10;68.80;;;;;;4950543;28;20424;-83
2021/12/14 09:12:35;;;;;;;6.47;5.87;;;6.20;68.30;;;;;;4950234;29;20431;-84
2021/12/14 09:15:14;;;;;;;7.10;6.07;;;6.20;68.70;;;;;;4949540;29;20430;-83
2021/12/14 09:17:41;;;;;;;6.43;5.40;;;6.10;69.20;;;;;;4950070;28;20416;-82
2021/12/14 09:20:15;;;;;;;7.23;6.00;;;6.10;68.70;;;;;;4949942;28;20924;-84
2021/12/14 09:22:45;;;;;;;6.20;5.60;;;6.10;67.80;;;;;;4950560;28;20412;-83
2021/12/14 09:25:19;;;;;;;6.60;5.90;;;6.20;68.70;;;;;;4950460;29;20412;-82
2021/12/14 09:27:45;;;;;;;5.27;4.77;;;6.20;69.00;;;;;;4950671;29;20463;-82
2021/12/14 09:30:14;;;;;;;5.60;5.00;;;6.20;68.30;;;;;;4949956;29;20991;-83
2021/12/14 09:32:41;;;;;;;5.80;5.20;;;6.30;68.80;;;;;;4950494;29;20424;-83
2021/12/14 09:35:14;;;;;;;6.50;4.37;;;6.30;66.70;;;;;;4950278;29;20518;-85
2021/12/14 09:37:40;;;;;;;5.23;4.73;;;6.30;66.20;;;;;;4950623;29;20416;-84
2021/12/14 09:40:19;;;;;;;5.30;4.70;;;6.30;65.90;;;;;;4950303;29;21330;-85
2021/12/14 09:42:44;;;;;;;4.40;4.00;;;6.40;66.00;;;;;;4950449;29;21013;-86
2021/12/14 09:45:16;;;;;;;5.03;4.53;;;6.40;65.90;;;;;;4949952;28;20510;-84
2021/12/14 09:47:42;;;;;;;4.47;4.17;;;6.50;66.00;;;;;;4950017;29;20196;-82
2021/12/14 09:50:16;;;;;;;4.97;4.57;;;6.50;65.60;;;;;;4949851;29;20438;-83
2021/12/14 09:52:43;;;;;;;6.03;4.07;;;6.60;65.50;;;;;;4949843;29;20428;-83
2021/12/14 09:55:15;;;;;;;5.40;3.60;;;6.70;64.10;;;;;;4953380;29;20839;-83
2021/12/14 09:57:45;;;;;;;3.50;3.20;;;6.70;64.60;;;;;;4953372;29;20775;-82
2021/12/14 10:00:22;;;;;;;3.20;2.93;;;6.80;64.00;;;;;;4953471;29;20428;-83
2021/12/14 10:02:51;;;;;;;3.23;2.93;;;6.80;63.20;;;;;;4953557;29;20406;-83
2021/12/14 10:05:22;;;;;;;3.67;3.40;;;6.80;64.30;;;;;;4953533;29;20457;-83
2021/12/14 10:07:49;;;;;;;3.60;3.30;;;6.80;63.30;;;;;;4953540;29;20443;-82
2021/12/14 10:10:18;;;;;;;2.93;2.73;;;6.80;62.00;;;;;;4953217;29;20461;-83
2021/12/14 10:12:50;;;;;;;4.17;3.77;;;6.80;63.00;;;;;;4953111;28;20441;-83
2021/12/14 10:15:22;;;;;;;3.80;3.40;;;6.80;63.00;;;;;;4952785;29;20914;-82
2021/12/14 10:17:49;;;;;;;4.20;3.80;;;6.90;63.70;;;;;;4953173;29;20472;-83
2021/12/14 10:20:19;;;;;;;5.10;4.37;;;7.00;63.70;;;;;;4938211;29;20422;-83
2021/12/14 10:22:45;;;;;;;4.50;4.10;;;7.00;62.90;;;;;;4953013;29;20418;-81
2021/12/14 10:25:15;;;;;;;5.77;5.23;;;7.00;63.50;;;;;;4952974;29;20452;-82
2021/12/14 10:27:41;;;;;;;10.67;5.93;;;7.00;63.60;;;;;;4952925;29;20430;-83
2021/12/14 10:30:32;;;;;;;7.43;6.70;;;7.00;64.50;;;;;;4952655;29;20436;-82
2021/12/14 10:33:00;;;;;;;10.80;7.00;;;7.00;63.70;;;;;;4952419;28;20423;-81
2021/12/14 10:35:35;;;;;;;8.63;7.63;;;7.10;63.70;;;;;;4952636;29;20470;-81
2021/12/14 10:38:27;;;;;;;9.37;6.97;;;7.10;64.50;;;;;;4952792;29;20421;-83
2021/12/14 10:43:46;;;;;;;10.17;7.63;;;7.00;63.30;;;;;;4938105;29;20442;-83
2021/12/14 10:46:29;;;;;;;8.40;7.40;;;6.90;64.00;;;;;;4952522;29;20835;-82
2021/12/14 10:48:56;;;;;;;9.27;7.50;;;6.90;64.10;;;;;;4952478;29;20431;-82
2021/12/14 10:51:26;;;;;;;9.30;7.80;;;6.90;64.80;;;;;;4952478;28;20432;-83
2021/12/14 10:53:54;;;;;;;9.13;8.23;;;6.90;64.20;;;;;;4936672;29;20840;-83
2021/12/14 10:56:25;;;;;;;8.77;7.87;;;6.80;64.90;;;;;;4952248;29;20870;-82
2021/12/14 10:58:54;;;;;;;10.00;8.97;;;6.90;64.90;;;;;;4952380;29;20519;-81
2021/12/14 11:01:30;;;;;;;9.23;8.23;;;6.90;65.20;;;;;;4951949;29;20415;-83
2021/12/14 11:04:02;;;;;;;9.00;8.10;;;6.90;64.20;;;;;;4952300;29;20859;-82
2021/12/14 11:06:30;;;;;;;13.80;11.23;;;7.00;64.50;;;;;;4951339;29;20435;-82
2021/12/14 11:09:40;;;;;;;12.47;9.57;;;7.00;65.00;;;;;;4952404;29;20421;-82
2021/12/14 11:11:55;;;;;;;8.80;8.00;;;7.00;64.70;;;;;;4937229;29;20432;-82
2021/12/14 11:14:27;;;;;;;8.70;7.90;;;7.00;64.40;;;;;;4951983;29;20431;-82
2021/12/14 11:19:46;;;;;;;7.60;6.80;;;7.00;64.10;;;;;;4937348;29;20415;-83
2021/12/14 11:22:17;;;;;;;4.27;3.87;;;7.00;64.40;;;;;;4951516;29;20423;-82
2021/12/14 11:24:49;;;;;;;5.00;4.23;;;7.10;64.10;;;;;;4951535;29;20438;-83
2021/12/14 11:27:24;;;;;;;7.00;6.20;;;7.10;63.10;;;;;;4936885;29;20434;-81
2021/12/14 11:30:08;;;;;;;7.70;6.97;;;7.10;63.20;;;;;;4951434;29;20526;-82
2021/12/14 11:32:34;;;;;;;6.80;6.20;;;7.10;64.10;;;;;;4951382;29;20453;-82
2021/12/14 11:35:01;;;;;;;4.40;3.70;;;7.20;63.50;;;;;;4951600;28;20921;-83
2021/12/14 11:37:34;;;;;;;5.80;4.47;;;7.20;62.30;;;;;;4951450;28;20426;-83
2021/12/14 11:40:02;;;;;;;7.63;6.40;;;7.10;62.90;;;;;;4952359;29;20412;-82
2021/12/14 11:42:29;;;;;;;14.23;7.37;;;7.10;63.10;;;;;;4936402;29;20454;-82
2021/12/14 11:45:04;;;;;;;10.20;7.10;;;7.20;63.20;;;;;;4938343;29;20403;-82
2021/12/14 11:50:09;;;;;;;9.53;8.47;;;7.30;63.50;;;;;;4937137;29;20423;-89
2021/12/14 11:52:53;;;;;;;10.07;9.07;;;7.30;63.10;;;;;;4937204;29;20439;-89
2021/12/14 11:55:31;;;;;;;9.57;8.67;;;7.30;63.90;;;;;;4951790;29;20431;-88
2021/12/14 11:58:11;;;;;;;12.40;10.57;;;7.30;63.60;;;;;;4954357;29;20412;-91
2021/12/14 12:00:45;;;;;;;10.53;9.63;;;7.30;63.60;;;;;;4954797;29;20423;-88
2021/12/14 12:03:31;;;;;;;9.37;8.40;;;7.40;63.70;;;;;;4941686;29;20427;-88
2021/12/14 12:06:13;;;;;;;8.50;7.50;;;7.30;63.40;;;;;;4953824;29;20423;-87
2021/12/14 12:11:41;;;;;;;9.80;8.40;;;7.30;63.20;;;;;;4937252;29;20426;-89
2021/12/14 12:14:53;;;;;;;8.27;7.30;;;7.40;62.90;;;;;;4951533;29;20435;-89
2021/12/14 12:17:42;;;;;;;13.07;11.33;;;7.30;64.20;;;;;;4937331;29;20479;-88
2021/12/14 12:20:21;;;;;;;8.60;7.80;;;7.40;64.70;;;;;;4954356;28;20812;-90
2021/12/14 12:22:57;;;;;;;8.77;7.87;;;7.40;62.10;;;;;;4950276;29;20421;-89
2021/12/14 12:25:29;;;;;;;11.30;8.30;;;7.40;62.60;;;;;;4954980;29;20438;-89
2021/12/14 12:28:01;;;;;;;13.17;10.30;;;7.50;63.30;;;;;;4954430;29;20426;-88
2021/12/14 12:30:48;;;;;;;10.13;8.20;;;7.50;62.30;;;;;;4954158;28;20439;-87
2021/12/14 12:33:25;;;;;;;10.50;9.40;;;7.40;62.60;;;;;;4954346;29;20418;-89
2021/12/14 12:36:03;;;;;;;11.17;9.30;;;7.50;63.50;;;;;;4954040;29;20462;-88
2021/12/14 12:38:42;;;;;;;12.20;8.90;;;7.50;63.20;;;;;;4954093;28;20434;-90
2021/12/14 12:41:16;;;;;;;9.63;8.83;;;7.50;63.40;;;;;;4953934;28;20417;-88
2021/12/14 12:44:05;;;;;;;13.63;9.70;;;7.50;63.60;;;;;;4954182;28;20445;-89
2021/12/14 12:46:39;;;;;;;10.53;9.53;;;7.50;63.80;;;;;;4953974;28;20434;-89
2021/12/14 12:49:11;;;;;;;18.90;11.00;;;7.60;63.90;;;;;;4953514;28;20479;-90
2021/12/14 12:51:52;;;;;;;12.30;9.87;;;7.50;63.90;;;;;;4953807;29;20566;-87
2021/12/14 12:54:32;;;;;;;10.70;9.60;;;7.50;64.20;;;;;;4954110;29;20422;-90
2021/12/14 12:57:16;;;;;;;10.63;9.47;;;7.50;63.40;;;;;;4953925;29;20467;-89
2021/12/14 12:59:57;;;;;;;10.90;8.80;;;7.60;63.90;;;;;;4954015;28;20421;-88
2021/12/14 13:02:52;;;;;;;9.07;8.27;;;7.60;64.40;;;;;;4954014;28;20400;-87
2021/12/14 13:05:27;;;;;;;10.53;9.07;;;7.70;63.60;;;;;;4949953;29;20469;-90
2021/12/14 13:08:01;;;;;;;10.00;9.10;;;7.60;64.10;;;;;;4953678;29;20502;-88
2021/12/14 13:10:43;;;;;;;10.20;9.27;;;7.70;64.30;;;;;;4953642;28;20429;-89
2021/12/14 13:13:18;;;;;;;12.70;8.50;;;7.70;64.20;;;;;;4954036;29;20426;-89
2021/12/14 13:15:43;;;;;;;10.20;9.10;;;7.70;64.20;;;;;;4953942;29;20516;-88
2021/12/14 13:18:32;;;;;;;10.67;8.43;;;7.70;64.20;;;;;;4955218;28;20498;-82
2021/12/14 13:21:23;;;;;;;10.40;9.40;;;7.60;65.00;;;;;;4952926;29;20538;-82
2021/12/14 13:23:48;;;;;;;10.17;9.17;;;7.70;64.60;;;;;;4953269;29;20411;-82
2021/12/14 13:26:23;;;;;;;10.47;9.37;;;7.60;65.50;;;;;;4953168;28;20469;-82
2021/12/14 13:28:53;;;;;;;10.53;9.43;;;7.60;65.70;;;;;;4954726;28;20210;-82
2021/12/14 13:31:40;;;;;;;9.10;8.23;;;7.70;64.70;;;;;;4956563;29;20504;-82
2021/12/14 13:34:10;;;;;;;9.60;8.70;;;7.60;65.00;;;;;;4957011;28;20427;-81
2021/12/14 13:36:36;;;;;;;10.10;9.20;;;7.50;65.90;;;;;;4956692;29;20485;-82
2021/12/14 13:39:05;;;;;;;9.93;9.03;;;7.50;65.60;;;;;;4957912;28;20420;-82
2021/12/14 13:41:58;;;;;;;10.33;9.33;;;7.50;66.00;;;;;;4956705;28;20430;-82
2021/12/14 13:44:31;;;;;;;10.20;9.20;;;7.40;66.70;;;;;;4956718;29;20497;-81
2021/12/14 13:46:59;;;;;;;10.80;9.80;;;7.40;67.10;;;;;;4958568;28;20886;-88
2021/12/14 13:49:26;;;;;;;10.07;8.93;;;7.40;66.40;;;;;;4958895;28;20426;-88
2021/12/14 13:51:52;;;;;;;10.03;8.50;;;7.30;67.30;;;;;;4967211;29;20428;-87
2021/12/14 13:54:18;;;;;;;9.67;8.70;;;7.30;67.40;;;;;;4962446;28;20796;-88
2021/12/14 13:56:46;;;;;;;9.77;8.87;;;7.20;68.70;;;;;;4957280;29;20461;-89
2021/12/14 13:59:15;;;;;;;10.97;9.13;;;7.20;69.50;;;;;;4956708;29;20178;-88
2021/12/14 14:01:49;;;;;;;10.40;9.30;;;7.10;69.00;;;;;;4956668;28;20756;-88
2021/12/14 14:04:20;;;;;;;11.00;9.90;;;7.00;70.70;;;;;;4956758;28;20413;-89
2021/12/14 14:06:46;;;;;;;11.60;10.30;;;7.00;70.90;;;;;;4956426;28;20536;-88
2021/12/14 14:09:25;;;;;;;12.00;10.63;;;7.10;70.80;;;;;;4956469;28;20185;-88
2021/12/14 14:12:14;;;;;;;10.60;9.50;;;7.00;71.70;;;;;;4957825;28;20422;-88
2021/12/14 14:14:42;;;;;;;12.90;10.40;;;7.00;71.80;;;;;;4956700;28;20425;-90
2021/12/14 14:17:18;;;;;;;12.40;11.10;;;7.00;72.50;;;;;;4956481;28;20458;-89